Time;durP1;ratioP1;P1;durP2;ratioP2;P2;SDS_P1;SDS_P2;PMS_P1;PMS_P2;Temp;Humidity;BMP_temperature;BMP_pressure;BME280_temperature;BME280_humidity;BME280_pressure;Samples;Min_cycle;Max_cycle;Signal;HPM_P1;HPM_P2
2021/09/17 00:00:16;;;;;;;;;;;;;;;12.37;84.03;97063.66;30001;982;1885;-57
2021/09/17 00:00:46;;;;;;;;;;;;;;;12.40;84.35;97068.50;30001;982;1880;-57
2021/09/17 00:01:18;;;;;;;;;;;;;;;12.41;83.74;97061.97;30001;983;1884;-59
2021/09/17 00:01:49;;;;;;;;;;;;;;;12.44;83.70;97066.81;30001;983;1858;-64
2021/09/17 00:02:19;;;;;;;;;;;;;;;12.45;83.34;97062.97;30001;983;1880;-63
2021/09/17 00:02:50;;;;;;;;;;;;;;;12.46;83.48;97061.88;30001;970;1902;-59
2021/09/17 00:03:21;;;;;;;;;;;;;;;12.45;83.57;97054.81;30001;983;1884;-58
2021/09/17 00:03:52;;;;;;;;;;;;;;;12.44;83.83;97064.09;30001;983;1880;-64
2021/09/17 00:04:29;;;;;;;;;;;;;;;12.41;83.92;97056.50;30001;983;1862;-59
2021/09/17 00:05:00;;;;;;;;;;;;;;;12.42;83.75;97060.84;30001;983;1876;-58
2021/09/17 00:05:31;;;;;;;;;;;;;;;12.42;83.69;97060.84;30001;983;1884;-59
2021/09/17 00:06:02;;;;;;;;;;;;;;;12.42;83.74;97063.56;30001;983;1880;-58
2021/09/17 00:06:33;;;;;;;;;;;;;;;12.40;84.09;97063.88;30001;982;1863;-63
2021/09/17 00:07:05;;;;;;;;;;;;;;;12.36;83.68;97057.41;30001;982;1876;-62
2021/09/17 00:07:36;;;;;;;;;;;;;;;12.34;83.64;97058.81;30001;982;1885;-64
2021/09/17 00:08:07;;;;;;;;;;;;;;;12.32;83.90;97063.75;30001;982;1880;-58
2021/09/17 00:08:38;;;;;;;;;;;;;;;12.33;84.24;97062.66;30001;982;1885;-58
2021/09/17 00:09:09;;;;;;;;;;;;;;;12.33;84.19;97062.66;30001;983;1880;-59
2021/09/17 00:09:43;;;;;;;;;;;;;;;12.34;84.01;97062.34;30001;983;1884;-65
2021/09/17 00:10:14;;;;;;;;;;;;;;;12.34;83.55;97059.63;30001;983;1880;-60
2021/09/17 00:10:46;;;;;;;;;;;;;;;12.34;83.06;97059.63;30001;983;1884;-60
2021/09/17 00:11:16;;;;;;;;;;;;;;;12.34;83.10;97059.63;30001;983;1880;-59
2021/09/17 00:11:48;;;;;;;;;;;;;;;12.35;82.34;97061.25;30001;983;1862;-62
2021/09/17 00:12:19;;;;;;;;;;;;;;;12.34;82.20;97059.63;30001;983;1876;-64
2021/09/17 00:12:50;;;;;;;;;;;;;;;12.33;82.01;97068.09;30001;986;1884;-58
2021/09/17 00:13:21;;;;;;;;;;;;;;;12.32;82.69;97069.19;30001;983;1880;-63
2021/09/17 00:13:52;;;;;;;;;;;;;;;12.30;82.85;97061.31;30001;982;1885;-58
2021/09/17 00:14:22;;;;;;;;;;;;;;;12.32;82.84;97066.47;30001;982;1880;-65
2021/09/17 00:14:53;;;;;;;;;;;;;;;12.30;83.21;97064.03;30001;982;1885;-58
2021/09/17 00:15:24;;;;;;;;;;;;;;;12.32;83.25;97061.03;30001;982;1858;-59
2021/09/17 00:15:55;;;;;;;;;;;;;;;12.33;83.51;97066.16;30001;982;1880;-63
2021/09/17 00:16:26;;;;;;;;;;;;;;;12.35;83.37;97065.87;30001;983;1880;-59
2021/09/17 00:16:57;;;;;;;;;;;;;;;12.34;83.43;97061.53;30001;983;1803;-59
2021/09/17 00:17:29;;;;;;;;;;;;;;;12.36;83.44;97065.56;30001;983;1880;-59
2021/09/17 00:18:00;;;;;;;;;;;;;;;12.36;83.63;97062.03;30001;983;1884;-63
2021/09/17 00:18:30;;;;;;;;;;;;;;;12.39;83.68;97066.91;30001;983;1880;-59
2021/09/17 00:19:01;;;;;;;;;;;;;;;12.38;83.74;97068.81;30001;983;1787;-63
2021/09/17 00:19:33;;;;;;;;;;;;;;;12.38;83.44;97057.91;30001;983;1880;-64
2021/09/17 00:20:08;;;;;;;;;;;;;;;12.38;83.27;97065.28;30001;983;1884;-58
2021/09/17 00:20:39;;;;;;;;;;;;;;;12.37;83.29;97058.22;30001;982;1858;-64
2021/09/17 00:21:10;;;;;;;;;;;;;;;12.36;83.46;97070.22;30001;982;1880;-63
2021/09/17 00:21:41;;;;;;;;;;;;;;;12.35;83.55;97061.25;30001;982;1881;-58
2021/09/17 00:22:14;;;;;;;;;;;;;;;12.36;83.64;97062.03;30001;982;1885;-64
2021/09/17 00:22:45;;;;;;;;;;;;;;;12.35;83.62;97072.13;30001;982;1796;-62
2021/09/17 00:23:17;;;;;;;;;;;;;;;12.36;83.65;97067.50;30001;982;1885;-59
2021/09/17 00:23:48;;;;;;;;;;;;;;;12.36;83.77;97064.78;30001;982;1859;-60
2021/09/17 00:24:19;;;;;;;;;;;;;;;12.35;83.81;97061.25;30001;983;1880;-59
2021/09/17 00:24:49;;;;;;;;;;;;;;;12.34;83.64;97065.06;30001;983;1880;-59
2021/09/17 00:25:20;;;;;;;;;;;;;;;12.36;83.44;97067.50;30001;983;1884;-64
2021/09/17 00:25:51;;;;;;;;;;;;;;;12.38;82.47;97070.72;30001;983;1880;-57
2021/09/17 00:26:22;;;;;;;;;;;;;;;12.38;81.87;97057.91;30001;983;1884;-58
2021/09/17 00:26:53;;;;;;;;;;;;;;;12.38;81.55;97057.13;30001;983;1858;-59
2021/09/17 00:27:24;;;;;;;;;;;;;;;12.38;81.26;97066.09;30001;983;1880;-58
2021/09/17 00:27:54;;;;;;;;;;;;;;;12.40;81.39;97071.22;30001;983;1880;-58
2021/09/17 00:28:25;;;;;;;;;;;;;;;12.39;81.15;97064.97;30001;982;1757;-59
2021/09/17 00:28:56;;;;;;;;;;;;;;;12.40;81.53;97063.88;30001;982;1876;-63
2021/09/17 00:29:27;;;;;;;;;;;;;;;12.41;81.65;97065.50;30001;982;1885;-64
2021/09/17 00:29:58;;;;;;;;;;;;;;;12.42;81.85;97066.28;30001;982;1881;-64
2021/09/17 00:30:28;;;;;;;;;;;;;;;12.44;82.05;97068.72;30001;982;1863;-59
2021/09/17 00:30:59;;;;;;;;;;;;;;;12.43;82.05;97059.75;30001;982;1876;-58
2021/09/17 00:31:30;;;;;;;;;;;;;;;12.44;82.38;97063.28;30001;983;1884;-59
2021/09/17 00:32:01;;;;;;;;;;;;;;;12.45;82.32;97062.97;30001;983;1880;-58
2021/09/17 00:32:32;;;;;;;;;;;;;;;12.44;82.38;97055.91;30001;983;1884;-64
2021/09/17 00:33:03;;;;;;;;;;;;;;;12.43;81.92;97057.03;30001;983;1880;-58
2021/09/17 00:33:34;;;;;;;;;;;;;;;12.41;82.46;97059.25;30001;983;1884;-64
2021/09/17 00:34:05;;;;;;;;;;;;;;;12.43;82.38;97062.47;30001;983;1880;-64
2021/09/17 00:34:36;;;;;;;;;;;;;;;12.43;82.68;97057.03;30001;983;1884;-65
2021/09/17 00:35:08;;;;;;;;;;;;;;;12.45;82.89;97060.25;30001;983;1858;-59
2021/09/17 00:35:38;;;;;;;;;;;;;;;12.47;82.95;97057.22;30001;982;1880;-63
2021/09/17 00:36:09;;;;;;;;;;;;;;;12.47;82.60;97052.59;30001;982;1880;-59
2021/09/17 00:36:43;;;;;;;;;;;;;;;12.47;82.07;97055.31;30001;982;1884;-64
2021/09/17 00:37:14;;;;;;;;;;;;;;;12.48;81.61;97048.75;30001;982;1880;-62
2021/09/17 00:37:45;;;;;;;;;;;;;;;12.49;81.51;97055.78;30001;982;1863;-63
2021/09/17 00:38:15;;;;;;;;;;;;;;;12.49;81.74;97050.34;30001;982;1876;-63
2021/09/17 00:38:46;;;;;;;;;;;;;;;12.50;81.63;97057.41;30001;982;1885;-59
2021/09/17 00:39:18;;;;;;;;;;;;;;;12.50;81.79;97046.53;30001;983;1879;-59
2021/09/17 00:39:49;;;;;;;;;;;;;;;12.51;82.05;97050.06;30001;983;1884;-59
2021/09/17 00:40:20;;;;;;;;;;;;;;;12.52;82.05;97049.75;30001;983;1782;-60
2021/09/17 00:40:51;;;;;;;;;;;;;;;12.52;82.35;97044.31;30001;983;1862;-63
2021/09/17 00:41:22;;;;;;;;;;;;;;;12.51;82.20;97045.41;30001;983;1875;-58
2021/09/17 00:41:53;;;;;;;;;;;;;;;12.51;82.18;97039.97;30001;983;1884;-58
2021/09/17 00:42:24;;;;;;;;;;;;;;;12.52;82.46;97048.94;30001;983;1880;-58
2021/09/17 00:42:55;;;;;;;;;;;;;;;12.53;82.53;97039.69;30001;983;1884;-65
2021/09/17 00:43:25;;;;;;;;;;;;;;;12.54;82.41;97042.09;30001;982;1858;-58
2021/09/17 00:43:56;;;;;;;;;;;;;;;12.53;82.49;97035.03;30001;960;1816;-59
2021/09/17 00:44:28;;;;;;;;;;;;;;;12.55;82.40;97046.44;30001;982;1858;-59
2021/09/17 00:44:58;;;;;;;;;;;;;;;12.56;82.25;97039.88;30001;982;1880;-62
2021/09/17 00:45:29;;;;;;;;;;;;;;;12.56;81.98;97045.31;30001;982;1881;-59
2021/09/17 00:46:00;;;;;;;;;;;;;;;12.57;81.57;97041.50;30001;982;1885;-63
2021/09/17 00:46:31;;;;;;;;;;;;;;;12.58;81.28;97036.84;30001;982;1881;-58
2021/09/17 00:47:02;;;;;;;;;;;;;;;12.58;80.95;97037.66;30001;983;1884;-59
2021/09/17 00:47:33;;;;;;;;;;;;;;;12.59;80.74;97039.28;30001;983;1880;-64
2021/09/17 00:48:04;;;;;;;;;;;;;;;12.59;80.74;97039.28;30001;983;1862;-59
2021/09/17 00:48:35;;;;;;;;;;;;;;;12.60;80.89;97040.09;30001;983;1854;-59
2021/09/17 00:49:06;;;;;;;;;;;;;;;12.60;80.95;97040.91;30001;983;1884;-59
2021/09/17 00:49:37;;;;;;;;;;;;;;;12.62;80.86;97038.69;30001;983;1880;-60
2021/09/17 00:50:10;;;;;;;;;;;;;;;12.62;81.02;97033.22;30001;983;1885;-59
2021/09/17 00:50:41;;;;;;;;;;;;;;;12.63;80.96;97034.84;30001;983;1880;-64
2021/09/17 00:51:12;;;;;;;;;;;;;;;12.65;80.87;97035.34;30001;982;1885;-64
2021/09/17 00:51:44;;;;;;;;;;;;;;;12.66;80.72;97038.88;30001;982;1880;-60
2021/09/17 00:52:14;;;;;;;;;;;;;;;12.66;80.46;97036.16;30001;982;1885;-58
2021/09/17 00:52:46;;;;;;;;;;;;;;;12.67;80.15;97043.22;30001;982;1880;-59
2021/09/17 00:53:17;;;;;;;;;;;;;;;12.67;79.92;97041.31;30001;983;1862;-63
2021/09/17 00:53:48;;;;;;;;;;;;;;;12.69;79.61;97043.72;30001;983;1875;-59
2021/09/17 00:54:20;;;;;;;;;;;;;;;12.69;79.32;97041.81;30001;983;1884;-59
2021/09/17 00:54:51;;;;;;;;;;;;;;;12.71;79.54;97050.47;30001;983;1880;-59
2021/09/17 00:55:22;;;;;;;;;;;;;;;12.71;79.29;97042.31;30001;983;1884;-63
2021/09/17 00:55:54;;;;;;;;;;;;;;;12.71;79.69;97045.03;30001;983;1880;-64
2021/09/17 00:56:25;;;;;;;;;;;;;;;12.70;79.52;97046.16;30001;983;1884;-64
2021/09/17 00:56:58;;;;;;;;;;;;;;;12.72;79.74;97040.41;30001;987;1872;-64
2021/09/17 00:57:29;;;;;;;;;;;;;;;12.72;79.69;97040.41;30001;986;1876;-63
2021/09/17 00:58:00;;;;;;;;;;;;;;;12.74;79.85;97040.91;30001;983;1884;-63
2021/09/17 00:58:31;;;;;;;;;;;;;;;12.74;79.47;97038.19;30001;985;1858;-63
2021/09/17 00:59:02;;;;;;;;;;;;;;;12.74;79.69;97044.44;30001;982;1859;-64
2021/09/17 00:59:33;;;;;;;;;;;;;;;12.75;79.34;97037.06;30001;982;1880;-63
2021/09/17 01:00:05;;;;;;;;;;;;;;;12.75;79.90;97048.78;30001;982;1885;-62
2021/09/17 01:00:35;;;;;;;;;;;;;;;12.74;79.69;97038.19;30001;982;1881;-63
2021/09/17 01:01:06;;;;;;;;;;;;;;;12.74;80.29;97036.28;30001;983;1884;-64
2021/09/17 01:01:39;;;;;;;;;;;;;;;12.75;80.33;97037.06;30001;983;1880;-64
2021/09/17 01:02:10;;;;;;;;;;;;;;;12.75;80.97;97040.59;30001;983;1884;-64
2021/09/17 01:02:41;;;;;;;;;;;;;;;12.77;80.98;97039.50;30001;983;1880;-64
2021/09/17 01:03:12;;;;;;;;;;;;;;;12.75;80.94;97043.31;30001;983;1884;-63
2021/09/17 01:03:43;;;;;;;;;;;;;;;12.77;81.14;97034.06;30001;983;1858;-64
2021/09/17 01:04:14;;;;;;;;;;;;;;;12.78;81.07;97041.91;30001;983;1880;-65
2021/09/17 01:04:45;;;;;;;;;;;;;;;12.77;81.87;97034.06;30001;987;1872;-63
2021/09/17 01:05:16;;;;;;;;;;;;;;;12.73;81.74;97034.66;30001;983;1884;-63
2021/09/17 01:05:46;;;;;;;;;;;;;;;12.71;81.45;97036.87;30001;983;1880;-64
2021/09/17 01:06:17;;;;;;;;;;;;;;;12.71;81.53;97044.22;30001;982;1885;-65
2021/09/17 01:06:49;;;;;;;;;;;;;;;12.71;81.72;97038.78;30001;982;1858;-63
2021/09/17 01:07:19;;;;;;;;;;;;;;;12.71;81.98;97042.31;30001;982;1859;-64
2021/09/17 01:07:50;;;;;;;;;;;;;;;12.69;82.01;97039.09;30001;982;1880;-63
2021/09/17 01:08:22;;;;;;;;;;;;;;;12.69;82.04;97041.81;30001;983;1884;-63
2021/09/17 01:08:53;;;;;;;;;;;;;;;12.69;82.02;97039.09;30001;983;1880;-64
2021/09/17 01:09:25;;;;;;;;;;;;;;;12.71;82.51;97047.75;30001;983;1862;-64
2021/09/17 01:09:57;;;;;;;;;;;;;;;12.77;81.38;97048.47;30001;983;1875;-64
2021/09/17 01:10:28;;;;;;;;;;;;;;;12.77;81.17;97040.31;30001;983;1884;-64
2021/09/17 01:10:59;;;;;;;;;;;;;;;12.73;81.06;97051.00;30001;983;1880;-63
2021/09/17 01:11:31;;;;;;;;;;;;;;;12.71;81.48;97042.31;30001;983;1884;-58
2021/09/17 01:12:04;;;;;;;;;;;;;;;12.70;81.29;97034.44;30001;983;1880;-65
2021/09/17 01:12:36;;;;;;;;;;;;;;;12.70;81.84;97040.69;30001;983;1884;-63
2021/09/17 01:13:07;;;;;;;;;;;;;;;12.70;82.01;97035.25;30001;983;1880;-64
2021/09/17 01:13:38;;;;;;;;;;;;;;;12.72;81.76;97041.22;30001;982;1885;-63
2021/09/17 01:14:09;;;;;;;;;;;;;;;12.71;81.67;97039.59;30001;982;1880;-62
2021/09/17 01:14:40;;;;;;;;;;;;;;;12.72;81.94;97034.97;30001;982;1863;-65
2021/09/17 01:15:13;;;;;;;;;;;;;;;12.69;82.16;97033.66;30001;982;1876;-63
2021/09/17 01:15:44;;;;;;;;;;;;;;;12.69;82.02;97039.09;30001;982;1885;-64
2021/09/17 01:16:15;;;;;;;;;;;;;;;12.66;82.10;97034.25;30001;983;1880;-63
2021/09/17 01:16:46;;;;;;;;;;;;;;;12.66;82.60;97038.88;30001;983;1884;-64
2021/09/17 01:17:19;;;;;;;;;;;;;;;12.65;82.70;97031.81;30001;983;1880;-63
2021/09/17 01:17:53;;;;;;;;;;;;;;;12.63;82.92;97034.84;30001;983;1863;-64
2021/09/17 01:18:26;;;;;;;;;;;;;;;12.63;82.62;97034.84;30001;983;1875;-62
2021/09/17 01:18:58;;;;;;;;;;;;;;;12.63;82.90;97036.75;30001;983;1862;-63
2021/09/17 01:19:29;;;;;;;;;;;;;;;12.61;82.71;97031.62;30001;983;1876;-64
2021/09/17 01:19:59;;;;;;;;;;;;;;;12.61;82.93;97037.06;30001;983;1884;-64
2021/09/17 01:20:30;;;;;;;;;;;;;;;12.60;82.76;97038.16;30001;983;1880;-61
2021/09/17 01:21:02;;;;;;;;;;;;;;;12.61;83.18;97041.69;30001;982;1885;-64
2021/09/17 01:21:33;;;;;;;;;;;;;;;12.59;82.95;97028.37;30001;982;1880;-63
2021/09/17 01:22:05;;;;;;;;;;;;;;;12.59;82.89;97033.84;30001;982;1885;-64
2021/09/17 01:22:36;;;;;;;;;;;;;;;12.61;82.56;97028.91;30001;982;1880;-63
2021/09/17 01:23:07;;;;;;;;;;;;;;;12.61;82.61;97031.62;30001;986;1863;-63
2021/09/17 01:23:38;;;;;;;;;;;;;;;12.62;82.59;97035.97;30001;983;1875;-64
2021/09/17 01:24:10;;;;;;;;;;;;;;;12.62;83.54;97032.44;30001;983;1884;-64
2021/09/17 01:24:41;;;;;;;;;;;;;;;12.60;83.42;97032.72;30001;983;1880;-63
2021/09/17 01:25:14;;;;;;;;;;;;;;;12.62;83.32;97038.69;30001;983;1884;-65
2021/09/17 01:25:45;;;;;;;;;;;;;;;12.63;82.59;97034.84;30001;983;1880;-63
2021/09/17 01:26:17;;;;;;;;;;;;;;;12.60;82.77;97030.00;30001;983;1884;-64
2021/09/17 01:26:47;;;;;;;;;;;;;;;12.62;82.81;97038.69;30001;983;1858;-65
2021/09/17 01:27:18;;;;;;;;;;;;;;;12.62;82.93;97037.88;30001;983;1880;-64
2021/09/17 01:27:51;;;;;;;;;;;;;;;12.62;83.04;97030.50;30001;982;1880;-64
2021/09/17 01:28:29;;;;;;;;;;;;;;;12.61;83.20;97034.34;30001;982;1885;-63
2021/09/17 01:29:00;;;;;;;;;;;;;;;12.62;82.91;97038.69;30001;982;1880;-63
2021/09/17 01:29:31;;;;;;;;;;;;;;;12.62;83.34;97033.22;30001;982;1885;-62
2021/09/17 01:30:04;;;;;;;;;;;;;;;12.63;82.96;97032.12;30001;982;1880;-63
2021/09/17 01:30:34;;;;;;;;;;;;;;;12.64;83.53;97028.28;30001;982;1885;-63
2021/09/17 01:31:05;;;;;;;;;;;;;;;12.64;83.54;97028.28;30001;983;1880;-63
2021/09/17 01:31:36;;;;;;;;;;;;;;;12.64;84.34;97036.47;30001;983;1884;-64
2021/09/17 01:32:07;;;;;;;;;;;;;;;12.64;83.67;97031.03;30001;983;1858;-62
2021/09/17 01:32:41;;;;;;;;;;;;;;;12.64;83.81;97022.84;30001;983;1880;-58
2021/09/17 01:33:12;;;;;;;;;;;;;;;12.64;83.33;97022.84;30001;983;1880;-64
2021/09/17 01:33:43;;;;;;;;;;;;;;;12.65;82.44;97026.38;30001;983;1884;-63
2021/09/17 01:34:16;;;;;;;;;;;;;;;12.66;82.02;97023.34;30001;983;1880;-63
2021/09/17 01:34:46;;;;;;;;;;;;;;;12.66;81.72;97026.09;30001;983;1884;-59
2021/09/17 01:35:18;;;;;;;;;;;;;;;12.68;81.29;97020.34;30001;984;1880;-64
2021/09/17 01:35:59;;;;;;;;;;;;;;;12.67;81.33;97024.97;30001;982;1885;-62
2021/09/17 01:36:30;;;;;;;;;;;;;;;12.68;81.13;97026.59;30001;982;1880;-64
2021/09/17 01:37:01;;;;;;;;;;;;;;;12.70;80.89;97018.94;30001;982;1885;-63
2021/09/17 01:37:32;;;;;;;;;;;;;;;12.71;81.06;97015.09;30001;982;1859;-64
2021/09/17 01:38:03;;;;;;;;;;;;;;;12.71;81.18;97017.00;30001;982;1880;-64
2021/09/17 01:38:36;;;;;;;;;;;;;;;12.73;81.10;97017.50;30001;983;1858;-64
2021/09/17 01:39:06;;;;;;;;;;;;;;;12.72;81.55;97013.97;30001;983;1879;-63
2021/09/17 01:39:37;;;;;;;;;;;;;;;12.73;81.05;97014.78;30001;983;1880;-63
2021/09/17 01:40:09;;;;;;;;;;;;;;;12.73;81.08;97012.06;30001;983;1884;-63
2021/09/17 01:40:40;;;;;;;;;;;;;;;12.73;80.78;97012.87;30001;983;1880;-64
2021/09/17 01:41:11;;;;;;;;;;;;;;;12.74;80.70;97016.41;30001;983;1884;-58
2021/09/17 01:41:42;;;;;;;;;;;;;;;12.73;80.98;97012.87;30001;983;1880;-58
2021/09/17 01:42:13;;;;;;;;;;;;;;;12.75;81.29;97016.09;30001;983;1884;-63
2021/09/17 01:42:44;;;;;;;;;;;;;;;12.75;81.32;97013.37;30001;983;1858;-64
2021/09/17 01:43:15;;;;;;;;;;;;;;;12.75;81.15;97016.09;30001;982;1858;-58
2021/09/17 01:43:46;;;;;;;;;;;;;;;12.75;81.06;97016.09;30001;982;1858;-63
2021/09/17 01:44:17;;;;;;;;;;;;;;;12.77;81.44;97012.28;30001;982;1880;-64
2021/09/17 01:44:48;;;;;;;;;;;;;;;12.75;81.49;97016.09;30001;982;1880;-64
2021/09/17 01:45:19;;;;;;;;;;;;;;;12.78;81.38;97009.25;30001;982;1885;-63
2021/09/17 01:45:50;;;;;;;;;;;;;;;12.79;81.31;97012.78;30001;982;1880;-58
2021/09/17 01:46:21;;;;;;;;;;;;;;;12.81;81.13;97016.00;30001;983;1884;-63
2021/09/17 01:46:52;;;;;;;;;;;;;;;12.80;80.77;97011.66;30001;983;1880;-63
2021/09/17 01:47:23;;;;;;;;;;;;;;;12.79;81.55;97016.31;30001;983;1884;-65
2021/09/17 01:47:54;;;;;;;;;;;;;;;12.77;81.74;97012.28;30001;983;1880;-64
2021/09/17 01:48:26;;;;;;;;;;;;;;;12.74;81.82;97019.94;30001;983;1884;-64
2021/09/17 01:48:57;;;;;;;;;;;;;;;12.73;82.04;97017.50;30001;983;1858;-64
2021/09/17 01:49:28;;;;;;;;;;;;;;;12.72;81.99;97015.91;30001;983;1880;-62
2021/09/17 01:49:59;;;;;;;;;;;;;;;12.73;82.33;97012.87;30001;983;1880;-63
2021/09/17 01:50:30;;;;;;;;;;;;;;;12.72;82.87;97016.72;30001;982;1884;-58
2021/09/17 01:51:01;;;;;;;;;;;;;;;12.71;82.32;97020.53;30001;982;1880;-62
2021/09/17 01:51:32;;;;;;;;;;;;;;;12.71;82.70;97014.28;30001;982;1885;-64
2021/09/17 01:52:03;;;;;;;;;;;;;;;12.69;82.72;97009.16;30001;982;1880;-63
2021/09/17 01:52:34;;;;;;;;;;;;;;;12.72;82.93;97013.19;30001;982;1885;-63
2021/09/17 01:53:05;;;;;;;;;;;;;;;12.70;83.39;97013.47;30001;983;1880;-64
2021/09/17 01:53:40;;;;;;;;;;;;;;;12.71;84.04;97014.28;30001;983;1862;-62
2021/09/17 01:54:11;;;;;;;;;;;;;;;12.70;83.96;97013.47;30001;983;1875;-64
2021/09/17 01:54:43;;;;;;;;;;;;;;;12.70;83.59;97013.47;30001;983;1884;-62
2021/09/17 01:55:14;;;;;;;;;;;;;;;12.69;83.43;97011.88;30001;983;1880;-64
2021/09/17 01:55:44;;;;;;;;;;;;;;;12.71;83.70;97014.28;30001;983;1884;-58
2021/09/17 01:56:15;;;;;;;;;;;;;;;12.70;83.81;97015.41;30001;983;1880;-64
2021/09/17 01:56:46;;;;;;;;;;;;;;;12.71;83.88;97009.66;30001;983;1885;-63
2021/09/17 01:57:17;;;;;;;;;;;;;;;12.71;83.74;97012.38;30001;983;1880;-63
2021/09/17 01:57:48;;;;;;;;;;;;;;;12.73;83.55;97012.87;30001;983;1884;-64
2021/09/17 01:58:19;;;;;;;;;;;;;;;12.72;83.90;97005.81;30001;982;1880;-63
2021/09/17 01:58:53;;;;;;;;;;;;;;;12.73;83.91;97007.44;30001;982;1863;-64
2021/09/17 01:59:24;;;;;;;;;;;;;;;12.69;83.90;97014.59;30001;982;1876;-64
2021/09/17 01:59:55;;;;;;;;;;;;;;;12.67;83.66;97008.63;30001;982;1885;-63
2021/09/17 02:00:26;;;;;;;;;;;;;;;12.65;83.44;97005.41;30001;983;1880;-63
2021/09/17 02:00:58;;;;;;;;;;;;;;;12.66;83.69;97011.66;30001;983;1884;-59
2021/09/17 02:01:28;;;;;;;;;;;;;;;12.66;83.64;97007.03;30001;983;1880;-63
2021/09/17 02:01:59;;;;;;;;;;;;;;;12.66;83.71;97003.50;30001;983;1884;-64
2021/09/17 02:02:30;;;;;;;;;;;;;;;12.67;83.58;97000.47;30001;983;1880;-64
2021/09/17 02:03:03;;;;;;;;;;;;;;;12.68;83.37;96999.38;30001;983;1862;-64
2021/09/17 02:03:33;;;;;;;;;;;;;;;12.70;83.32;96997.16;30001;983;1875;-63
2021/09/17 02:04:04;;;;;;;;;;;;;;;12.71;83.75;96998.75;30001;983;1884;-64
2021/09/17 02:04:35;;;;;;;;;;;;;;;12.72;83.10;97005.00;30001;983;1858;-63
2021/09/17 02:05:06;;;;;;;;;;;;;;;12.71;83.00;97001.47;30001;983;1880;-63
2021/09/17 02:05:37;;;;;;;;;;;;;;;12.70;82.83;96997.16;30001;982;1880;-64
2021/09/17 02:06:08;;;;;;;;;;;;;;;12.72;82.94;96994.12;30001;982;1885;-60
2021/09/17 02:06:39;;;;;;;;;;;;;;;12.72;83.11;96999.56;30001;982;1881;-64
2021/09/17 02:07:10;;;;;;;;;;;;;;;12.71;82.79;96998.75;30001;982;1885;-63
2021/09/17 02:07:40;;;;;;;;;;;;;;;12.72;82.93;96994.94;30001;982;1880;-59
2021/09/17 02:08:11;;;;;;;;;;;;;;;12.74;82.92;96995.44;30001;983;1884;-63
2021/09/17 02:08:42;;;;;;;;;;;;;;;12.74;82.41;96998.16;30001;983;1879;-64
2021/09/17 02:09:13;;;;;;;;;;;;;;;12.73;82.57;96991.09;30001;983;1884;-63
2021/09/17 02:09:44;;;;;;;;;;;;;;;12.73;82.38;96999.25;30001;983;1858;-64
2021/09/17 02:10:14;;;;;;;;;;;;;;;12.73;82.56;96996.53;30001;983;1880;-64
2021/09/17 02:10:48;;;;;;;;;;;;;;;12.73;82.94;97006.63;30001;983;1880;-65
2021/09/17 02:11:19;;;;;;;;;;;;;;;12.73;83.36;96999.25;30001;983;1884;-64
2021/09/17 02:11:50;;;;;;;;;;;;;;;12.71;83.51;96993.31;30001;983;1880;-65
2021/09/17 02:12:21;;;;;;;;;;;;;;;12.70;83.29;96997.16;30001;983;1884;-62
2021/09/17 02:12:52;;;;;;;;;;;;;;;12.71;83.34;97004.19;30001;983;1880;-63
2021/09/17 02:13:23;;;;;;;;;;;;;;;12.71;83.54;96998.75;30001;982;1885;-64
2021/09/17 02:13:55;;;;;;;;;;;;;;;12.73;83.49;96995.72;30001;982;1880;-59
2021/09/17 02:14:26;;;;;;;;;;;;;;;12.74;83.57;97003.59;30001;982;1885;-63
2021/09/17 02:14:56;;;;;;;;;;;;;;;12.75;82.88;97004.41;30001;982;1858;-59
2021/09/17 02:15:27;;;;;;;;;;;;;;;12.74;82.80;97003.59;30001;982;1880;-59
2021/09/17 02:15:58;;;;;;;;;;;;;;;12.75;82.58;96997.03;30001;983;1880;-64
2021/09/17 02:16:30;;;;;;;;;;;;;;;12.77;82.72;96993.22;30001;983;1884;-64
2021/09/17 02:17:00;;;;;;;;;;;;;;;12.76;82.53;96995.12;30001;983;1880;-63
2021/09/17 02:17:31;;;;;;;;;;;;;;;12.77;82.42;96995.94;30001;983;1862;-63
2021/09/17 02:18:02;;;;;;;;;;;;;;;12.77;82.39;96998.66;30001;983;1875;-59
2021/09/17 02:18:33;;;;;;;;;;;;;;;12.77;82.22;96995.94;30001;983;1884;-64
2021/09/17 02:19:05;;;;;;;;;;;;;;;12.77;82.43;96995.94;30001;983;1880;-64
2021/09/17 02:19:35;;;;;;;;;;;;;;;12.78;82.58;96992.09;30001;983;1885;-64
2021/09/17 02:20:07;;;;;;;;;;;;;;;12.78;82.09;96992.91;30001;982;1880;-62
2021/09/17 02:20:38;;;;;;;;;;;;;;;12.80;82.32;96992.59;30001;982;1885;-63
2021/09/17 02:21:09;;;;;;;;;;;;;;;12.80;82.37;96987.16;30001;982;1858;-59
2021/09/17 02:21:40;;;;;;;;;;;;;;;12.79;82.36;96988.28;30001;982;1880;-63
2021/09/17 02:22:11;;;;;;;;;;;;;;;12.76;81.36;96992.41;30001;982;1881;-64
2021/09/17 02:22:41;;;;;;;;;;;;;;;12.77;81.28;96990.50;30001;982;1885;-64
2021/09/17 02:23:13;;;;;;;;;;;;;;;12.77;81.44;96998.66;30001;983;1879;-63
2021/09/17 02:23:44;;;;;;;;;;;;;;;12.77;81.73;96998.66;30001;983;1884;-63
2021/09/17 02:24:15;;;;;;;;;;;;;;;12.77;82.04;97001.38;30001;983;1858;-63
2021/09/17 02:24:46;;;;;;;;;;;;;;;12.78;82.34;96992.91;30001;983;1880;-63
2021/09/17 02:25:17;;;;;;;;;;;;;;;12.78;82.49;96997.56;30001;983;1880;-63
2021/09/17 02:25:48;;;;;;;;;;;;;;;12.77;82.45;96995.94;30001;983;1884;-63
2021/09/17 02:26:19;;;;;;;;;;;;;;;12.77;82.71;97002.19;30001;983;1880;-63
2021/09/17 02:26:50;;;;;;;;;;;;;;;12.78;83.09;96997.56;30001;983;1885;-63
2021/09/17 02:27:22;;;;;;;;;;;;;;;12.79;83.00;97001.88;30001;982;1880;-64
2021/09/17 02:27:53;;;;;;;;;;;;;;;12.79;83.17;96999.16;30001;982;1884;-64
2021/09/17 02:28:24;;;;;;;;;;;;;;;12.80;83.51;97000.78;30001;982;1858;-64
2021/09/17 02:28:54;;;;;;;;;;;;;;;12.80;83.52;97000.78;30001;982;1880;-64
2021/09/17 02:29:25;;;;;;;;;;;;;;;12.79;83.56;96999.97;30001;982;1881;-63
2021/09/17 02:29:56;;;;;;;;;;;;;;;12.80;83.52;96996.13;30001;982;1885;-62
2021/09/17 02:30:27;;;;;;;;;;;;;;;12.80;83.48;96995.31;30001;982;1880;-64
2021/09/17 02:30:58;;;;;;;;;;;;;;;12.81;83.75;97003.19;30001;983;1884;-64
2021/09/17 02:31:29;;;;;;;;;;;;;;;12.80;83.57;96998.06;30001;983;1880;-63
2021/09/17 02:32:00;;;;;;;;;;;;;;;12.82;83.86;96998.56;30001;983;1884;-64
2021/09/17 02:32:31;;;;;;;;;;;;;;;12.82;83.80;96998.56;30001;983;1880;-63
2021/09/17 02:33:01;;;;;;;;;;;;;;;12.83;84.19;96997.41;30001;983;1862;-58
2021/09/17 02:33:33;;;;;;;;;;;;;;;12.84;83.95;96993.59;30001;983;1876;-64
2021/09/17 02:34:04;;;;;;;;;;;;;;;12.85;83.38;96997.91;30001;983;1884;-64
2021/09/17 02:34:35;;;;;;;;;;;;;;;12.85;82.77;96993.28;30001;983;1880;-63
2021/09/17 02:35:07;;;;;;;;;;;;;;;12.87;82.25;96990.25;30001;982;1885;-64
2021/09/17 02:35:38;;;;;;;;;;;;;;;12.87;82.19;96996.50;30001;982;1858;-63
2021/09/17 02:36:09;;;;;;;;;;;;;;;12.87;82.57;96991.06;30001;982;1880;-63
2021/09/17 02:36:40;;;;;;;;;;;;;;;12.86;82.46;96994.09;30001;982;1880;-63
2021/09/17 02:37:11;;;;;;;;;;;;;;;12.85;82.79;96995.19;30001;982;1885;-63
2021/09/17 02:37:42;;;;;;;;;;;;;;;12.83;82.54;96989.25;30001;982;1881;-64
2021/09/17 02:38:13;;;;;;;;;;;;;;;12.83;82.89;96989.25;30001;983;1884;-58
2021/09/17 02:38:43;;;;;;;;;;;;;;;12.83;82.80;97000.13;30001;983;1880;-63
2021/09/17 02:39:15;;;;;;;;;;;;;;;12.87;82.59;96995.69;30001;983;1884;-63
2021/09/17 02:39:46;;;;;;;;;;;;;;;12.87;82.56;96988.34;30001;983;1880;-64
2021/09/17 02:40:17;;;;;;;;;;;;;;;12.87;83.27;96990.25;30001;983;1884;-63
2021/09/17 02:40:49;;;;;;;;;;;;;;;12.85;83.89;96997.91;30001;983;1858;-58
2021/09/17 02:41:20;;;;;;;;;;;;;;;12.82;84.14;96993.09;30001;983;1858;-63
2021/09/17 02:41:50;;;;;;;;;;;;;;;12.81;83.73;96996.94;30001;983;1880;-64
2021/09/17 02:42:21;;;;;;;;;;;;;;;12.82;83.55;96995.84;30001;982;1885;-64
2021/09/17 02:42:52;;;;;;;;;;;;;;;12.82;82.95;96998.56;30001;983;1889;-63
2021/09/17 02:43:23;;;;;;;;;;;;;;;12.83;83.10;97000.13;30001;982;1885;-64
2021/09/17 02:43:54;;;;;;;;;;;;;;;12.83;82.60;96994.69;30001;982;1880;-62
2021/09/17 02:44:25;;;;;;;;;;;;;;;12.83;82.51;96997.41;30001;982;1863;-64
2021/09/17 02:44:56;;;;;;;;;;;;;;;12.82;82.39;96998.56;30001;983;1875;-62
2021/09/17 02:45:27;;;;;;;;;;;;;;;12.82;82.68;96993.09;30001;983;1884;-62
2021/09/17 02:45:59;;;;;;;;;;;;;;;12.83;82.55;97000.13;30001;983;1858;-58
2021/09/17 02:46:30;;;;;;;;;;;;;;;12.84;82.80;96996.31;30001;983;1880;-63
2021/09/17 02:47:01;;;;;;;;;;;;;;;12.83;82.96;96994.69;30001;983;1880;-59